Archival Weather

Prince Mohammad Bin Abdulaziz

Prince Mohammad Bin Abdulaziz, Saudi Arabia (OEMA)

Report from: Sunday, December 3, 2023 5:00 PM +03
Current time: Wednesday, April 24, 2024 9:51 PM +03

Current weather – Weather history – Daily summaries
Weather forecast

Temperature30.0°C (86.0°F)
Heat index28.1°C (82.6°F)
Dew point-2.0°C (28.4°F)
Winds 14 kts (7.2 m/s, 16.1 mph) East (100°)
Clouds Sky clear
Altimeter30.06 in.Hg (1018 mB)
Relative humidity12 %
Density altitude1,649 ft. (502 m)
Remarks Ceiling and visibility OK
No significant changes expected in the next two hours
Flight conditions Visual Meteorological Conditions
Raw dataOEMA 031400Z 10014KT CAVOK 30/M02 Q1018 NOSIG
An error has occurred. This application may no longer respond until reloaded. Reload 🗙